TimeMST,TemperatureF,Dew PointF,Humidity,Sea Level PressureIn,VisibilityMPH,Wind Direction,Wind SpeedMPH,Gust SpeedMPH,PrecipitationIn,Events,Conditions,WindDirDegrees,DateUTC
12:52 AM,34.0,32.0,92,30.24,-9999.0,Calm,Calm,-,N/A,,Unknown,0,2013-02-25 07:52:00
1:52 AM,34.0,32.0,92,30.22,-9999.0,Calm,Calm,-,N/A,,Unknown,0,2013-02-25 08:52:00
2:52 AM,33.1,32.0,96,30.19,-9999.0,Calm,Calm,-,N/A,,Unknown,0,2013-02-25 09:52:00
3:52 AM,32.0,30.9,96,30.18,-9999.0,NNW,4.6,-,N/A,,Unknown,340,2013-02-25 10:52:00
4:52 AM,30.9,30.0,96,30.15,-9999.0,Calm,Calm,-,N/A,,Unknown,0,2013-02-25 11:52:00
5:52 AM,30.9,30.0,96,30.13,-9999.0,WNW,5.8,-,N/A,,Unknown,300,2013-02-25 12:52:00
6:52 AM,32.0,30.0,92,30.11,-9999.0,NNW,4.6,-,N/A,,Unknown,330,2013-02-25 13:52:00
7:52 AM,32.0,30.9,96,30.12,-9999.0,Calm,Calm,-,N/A,,Unknown,0,2013-02-25 14:52:00
8:52 AM,32.0,30.9,96,30.12,-9999.0,Calm,Calm,-,N/A,,Unknown,0,2013-02-25 15:52:00
9:52 AM,32.0,30.0,92,30.12,-9999.0,SW,4.6,-,0.06,,Unknown,230,2013-02-25 16:52:00
10:52 AM,32.0,30.9,96,30.14,-9999.0,Calm,Calm,-,0.09,,Unknown,0,2013-02-25 17:52:00
11:52 AM,33.1,30.9,92,30.14,-9999.0,Calm,Calm,-,0.03,,Unknown,0,2013-02-25 18:52:00
12:52 PM,34.0,32.0,92,30.13,-9999.0,Calm,Calm,-,N/A,,Unknown,0,2013-02-25 19:52:00
1:52 PM,37.0,32.0,82,30.10,-9999.0,Calm,Calm,-,N/A,,Unknown,0,2013-02-25 20:52:00
2:52 PM,39.9,34.0,79,30.07,-9999.0,Calm,Calm,-,N/A,,Unknown,0,2013-02-25 21:52:00
3:52 PM,36.0,34.0,93,30.09,-9999.0,Calm,Calm,-,0.02,,Unknown,0,2013-02-25 22:52:00
4:52 PM,34.0,32.0,92,30.11,-9999.0,Calm,Calm,-,0.14,,Unknown,0,2013-02-25 23:52:00
5:52 PM,34.0,33.1,96,30.12,-9999.0,Calm,Calm,-,0.03,,Unknown,0,2013-02-26 00:52:00
6:52 PM,33.1,32.0,96,30.14,-9999.0,Calm,Calm,-,0.01,,Unknown,0,2013-02-26 01:52:00
7:52 PM,33.1,32.0,96,30.17,-9999.0,Calm,Calm,-,N/A,,Unknown,0,2013-02-26 02:52:00
8:52 PM,33.1,33.1,100,30.17,-9999.0,Calm,Calm,-,N/A,,Unknown,0,2013-02-26 03:52:00
9:52 PM,33.1,32.0,96,30.20,-9999.0,Calm,Calm,-,N/A,,Unknown,0,2013-02-26 04:52:00
10:52 PM,33.1,32.0,96,30.22,-9999.0,Calm,Calm,-,0.06,,Unknown,0,2013-02-26 05:52:00
11:52 PM,33.1,32.0,96,30.24,-9999.0,Calm,Calm,-,0.03,,Unknown,0,2013-02-26 06:52:00